sensor_id;sensor_type;location;lat;lon;timestamp;P1;durP1;ratioP1;P2;durP2;ratioP2
69937;SDS011;57248;47.320;15.998;2023-12-04T00:01:49;0.75;;;0.30;;
69937;SDS011;57248;47.320;15.998;2023-12-04T00:04:21;0.53;;;0.23;;
69937;SDS011;57248;47.320;15.998;2023-12-04T00:06:47;1.50;;;0.32;;
69937;SDS011;57248;47.320;15.998;2023-12-04T00:09:19;1.85;;;0.20;;
69937;SDS011;57248;47.320;15.998;2023-12-04T00:11:51;0.70;;;0.30;;
69937;SDS011;57248;47.320;15.998;2023-12-04T00:14:23;2.10;;;0.35;;
69937;SDS011;57248;47.320;15.998;2023-12-04T00:16:55;1.00;;;0.05;;
69937;SDS011;57248;47.320;15.998;2023-12-04T00:19:21;0.70;;;0.40;;
69937;SDS011;57248;47.320;15.998;2023-12-04T00:21:53;0.30;;;0.00;;
69937;SDS011;57248;47.320;15.998;2023-12-04T00:24:25;0.52;;;0.20;;
69937;SDS011;57248;47.320;15.998;2023-12-04T00:26:57;0.30;;;0.10;;
69937;SDS011;57248;47.320;15.998;2023-12-04T00:29:31;0.30;;;0.10;;
69937;SDS011;57248;47.320;15.998;2023-12-04T00:32:10;0.52;;;0.10;;
69937;SDS011;57248;47.320;15.998;2023-12-04T00:34:42;0.10;;;0.00;;
69937;SDS011;57248;47.320;15.998;2023-12-04T00:37:08;0.20;;;0.10;;
69937;SDS011;57248;47.320;15.998;2023-12-04T00:39:40;0.08;;;0.00;;
69937;SDS011;57248;47.320;15.998;2023-12-04T00:42:12;1.23;;;0.10;;
69937;SDS011;57248;47.320;15.998;2023-12-04T00:44:44;0.00;;;0.00;;
69937;SDS011;57248;47.320;15.998;2023-12-04T00:47:16;0.50;;;0.20;;
69937;SDS011;57248;47.320;15.998;2023-12-04T00:49:48;0.38;;;0.05;;
69937;SDS011;57248;47.320;15.998;2023-12-04T00:52:14;0.27;;;0.07;;
69937;SDS011;57248;47.320;15.998;2023-12-04T00:54:45;0.27;;;0.17;;
69937;SDS011;57248;47.320;15.998;2023-12-04T00:57:17;0.35;;;0.10;;
69937;SDS011;57248;47.320;15.998;2023-12-04T00:59:50;0.30;;;0.10;;
69937;SDS011;57248;47.320;15.998;2023-12-04T01:02:22;2.28;;;0.68;;
69937;SDS011;57248;47.320;15.998;2023-12-04T01:04:54;1.83;;;0.43;;
69937;SDS011;57248;47.320;15.998;2023-12-04T01:07:20;0.00;;;0.00;;
69937;SDS011;57248;47.320;15.998;2023-12-04T01:09:51;0.10;;;0.03;;
69937;SDS011;57248;47.320;15.998;2023-12-04T01:12:17;1.10;;;0.20;;
69937;SDS011;57248;47.320;15.998;2023-12-04T01:14:48;0.63;;;0.13;;
69937;SDS011;57248;47.320;15.998;2023-12-04T01:17:21;0.17;;;0.07;;
69937;SDS011;57248;47.320;15.998;2023-12-04T01:19:47;0.95;;;0.57;;
69937;SDS011;57248;47.320;15.998;2023-12-04T01:22:18;0.43;;;0.10;;
69937;SDS011;57248;47.320;15.998;2023-12-04T01:24:50;0.40;;;0.10;;
69937;SDS011;57248;47.320;15.998;2023-12-04T01:27:22;0.15;;;0.00;;
69937;SDS011;57248;47.320;15.998;2023-12-04T01:29:48;0.00;;;0.00;;
69937;SDS011;57248;47.320;15.998;2023-12-04T01:32:20;0.00;;;0.00;;
69937;SDS011;57248;47.320;15.998;2023-12-04T01:34:59;0.38;;;0.10;;
69937;SDS011;57248;47.320;15.998;2023-12-04T01:37:31;0.20;;;0.00;;
69937;SDS011;57248;47.320;15.998;2023-12-04T01:39:57;0.50;;;0.20;;
69937;SDS011;57248;47.320;15.998;2023-12-04T01:42:28;0.00;;;0.00;;
69937;SDS011;57248;47.320;15.998;2023-12-04T01:45:07;0.60;;;0.07;;
69937;SDS011;57248;47.320;15.998;2023-12-04T01:47:47;0.10;;;0.10;;
69937;SDS011;57248;47.320;15.998;2023-12-04T01:50:19;0.63;;;0.17;;
69937;SDS011;57248;47.320;15.998;2023-12-04T01:52:45;0.67;;;0.10;;
69937;SDS011;57248;47.320;15.998;2023-12-04T01:55:18;0.47;;;0.20;;
69937;SDS011;57248;47.320;15.998;2023-12-04T01:57:53;0.20;;;0.03;;
69937;SDS011;57248;47.320;15.998;2023-12-04T02:00:27;0.28;;;0.10;;
69937;SDS011;57248;47.320;15.998;2023-12-04T02:02:59;0.38;;;0.22;;
69937;SDS011;57248;47.320;15.998;2023-12-04T02:05:32;0.05;;;0.00;;
69937;SDS011;57248;47.320;15.998;2023-12-04T02:08:04;0.20;;;0.10;;
69937;SDS011;57248;47.320;15.998;2023-12-04T02:10:30;0.20;;;0.00;;
69937;SDS011;57248;47.320;15.998;2023-12-04T02:13:02;0.13;;;0.08;;
69937;SDS011;57248;47.320;15.998;2023-12-04T02:15:34;0.25;;;0.03;;
69937;SDS011;57248;47.320;15.998;2023-12-04T02:18:06;0.00;;;0.00;;
69937;SDS011;57248;47.320;15.998;2023-12-04T02:20:32;1.58;;;0.32;;
69937;SDS011;57248;47.320;15.998;2023-12-04T02:23:05;0.47;;;0.35;;
69937;SDS011;57248;47.320;15.998;2023-12-04T02:25:37;0.33;;;0.10;;
69937;SDS011;57248;47.320;15.998;2023-12-04T02:28:06;0.38;;;0.28;;
69937;SDS011;57248;47.320;15.998;2023-12-04T02:30:42;0.00;;;0.00;;
69937;SDS011;57248;47.320;15.998;2023-12-04T02:33:15;0.30;;;0.30;;
69937;SDS011;57248;47.320;15.998;2023-12-04T02:36:00;0.57;;;0.17;;
69937;SDS011;57248;47.320;15.998;2023-12-04T02:38:35;0.00;;;0.00;;
69937;SDS011;57248;47.320;15.998;2023-12-04T02:41:01;1.00;;;0.20;;
69937;SDS011;57248;47.320;15.998;2023-12-04T02:43:34;1.75;;;0.28;;
69937;SDS011;57248;47.320;15.998;2023-12-04T02:46:06;1.27;;;0.20;;
69937;SDS011;57248;47.320;15.998;2023-12-04T02:48:38;0.35;;;0.10;;
69937;SDS011;57248;47.320;15.998;2023-12-04T02:51:10;0.32;;;0.17;;
69937;SDS011;57248;47.320;15.998;2023-12-04T02:53:42;0.03;;;0.00;;
69937;SDS011;57248;47.320;15.998;2023-12-04T02:56:14;1.27;;;0.10;;
69937;SDS011;57248;47.320;15.998;2023-12-04T02:58:40;0.15;;;0.03;;
69937;SDS011;57248;47.320;15.998;2023-12-04T03:01:11;0.50;;;0.10;;
69937;SDS011;57248;47.320;15.998;2023-12-04T03:03:43;0.57;;;0.17;;
69937;SDS011;57248;47.320;15.998;2023-12-04T03:06:15;0.05;;;0.00;;
69937;SDS011;57248;47.320;15.998;2023-12-04T03:08:48;0.03;;;0.00;;
69937;SDS011;57248;47.320;15.998;2023-12-04T03:11:20;1.40;;;0.68;;
69937;SDS011;57248;47.320;15.998;2023-12-04T03:13:52;0.00;;;0.00;;
69937;SDS011;57248;47.320;15.998;2023-12-04T03:16:24;0.52;;;0.30;;
69937;SDS011;57248;47.320;15.998;2023-12-04T03:18:50;0.30;;;0.20;;
69937;SDS011;57248;47.320;15.998;2023-12-04T03:21:22;0.40;;;0.13;;
69937;SDS011;57248;47.320;15.998;2023-12-04T03:23:54;0.30;;;0.00;;
69937;SDS011;57248;47.320;15.998;2023-12-04T03:26:26;0.60;;;0.20;;
69937;SDS011;57248;47.320;15.998;2023-12-04T03:29:00;0.20;;;0.05;;
69937;SDS011;57248;47.320;15.998;2023-12-04T03:31:39;0.00;;;0.00;;
69937;SDS011;57248;47.320;15.998;2023-12-04T03:34:11;0.00;;;0.00;;
69937;SDS011;57248;47.320;15.998;2023-12-04T03:36:43;0.25;;;0.10;;
69937;SDS011;57248;47.320;15.998;2023-12-04T03:39:09;0.17;;;0.03;;
69937;SDS011;57248;47.320;15.998;2023-12-04T03:41:40;0.00;;;0.00;;
69937;SDS011;57248;47.320;15.998;2023-12-04T03:44:12;0.10;;;0.10;;
69937;SDS011;57248;47.320;15.998;2023-12-04T03:46:44;0.10;;;0.00;;
69937;SDS011;57248;47.320;15.998;2023-12-04T03:49:16;0.00;;;0.00;;
69937;SDS011;57248;47.320;15.998;2023-12-04T03:51:48;0.10;;;0.03;;
69937;SDS011;57248;47.320;15.998;2023-12-04T03:54:20;0.10;;;0.00;;
69937;SDS011;57248;47.320;15.998;2023-12-04T03:56:52;0.00;;;0.00;;
69937;SDS011;57248;47.320;15.998;2023-12-04T03:59:31;2.00;;;0.05;;
69937;SDS011;57248;47.320;15.998;2023-12-04T04:02:03;0.00;;;0.00;;
69937;SDS011;57248;47.320;15.998;2023-12-04T04:04:29;0.15;;;0.00;;
69937;SDS011;57248;47.320;15.998;2023-12-04T04:07:00;0.03;;;0.00;;
69937;SDS011;57248;47.320;15.998;2023-12-04T04:09:32;0.47;;;0.30;;
69937;SDS011;57248;47.320;15.998;2023-12-04T04:12:04;0.47;;;0.15;;
69937;SDS011;57248;47.320;15.998;2023-12-04T04:14:36;0.00;;;0.00;;
69937;SDS011;57248;47.320;15.998;2023-12-04T04:17:08;0.45;;;0.30;;
69937;SDS011;57248;47.320;15.998;2023-12-04T04:19:40;0.00;;;0.00;;
69937;SDS011;57248;47.320;15.998;2023-12-04T04:22:12;1.08;;;0.43;;
69937;SDS011;57248;47.320;15.998;2023-12-04T04:24:38;0.00;;;0.00;;
69937;SDS011;57248;47.320;15.998;2023-12-04T04:27:10;0.00;;;0.00;;
69937;SDS011;57248;47.320;15.998;2023-12-04T04:29:43;0.10;;;0.00;;
69937;SDS011;57248;47.320;15.998;2023-12-04T04:32:23;0.00;;;0.00;;
69937;SDS011;57248;47.320;15.998;2023-12-04T04:34:56;2.38;;;0.43;;
69937;SDS011;57248;47.320;15.998;2023-12-04T04:37:28;0.30;;;0.10;;
69937;SDS011;57248;47.320;15.998;2023-12-04T04:40:01;0.80;;;0.20;;
69937;SDS011;57248;47.320;15.998;2023-12-04T04:42:34;0.00;;;0.00;;
69937;SDS011;57248;47.320;15.998;2023-12-04T04:45:06;0.32;;;0.15;;
69937;SDS011;57248;47.320;15.998;2023-12-04T04:47:38;0.15;;;0.10;;
69937;SDS011;57248;47.320;15.998;2023-12-04T04:50:04;0.13;;;0.03;;
69937;SDS011;57248;47.320;15.998;2023-12-04T04:52:36;0.10;;;0.05;;
69937;SDS011;57248;47.320;15.998;2023-12-04T04:55:02;1.07;;;0.40;;
69937;SDS011;57248;47.320;15.998;2023-12-04T04:57:36;0.80;;;0.28;;
69937;SDS011;57248;47.320;15.998;2023-12-04T05:00:08;0.00;;;0.00;;
69937;SDS011;57248;47.320;15.998;2023-12-04T05:02:34;0.17;;;0.07;;
69937;SDS011;57248;47.320;15.998;2023-12-04T05:05:06;0.20;;;0.05;;
69937;SDS011;57248;47.320;15.998;2023-12-04T05:07:32;0.13;;;0.00;;
69937;SDS011;57248;47.320;15.998;2023-12-04T05:10:04;0.40;;;0.00;;
69937;SDS011;57248;47.320;15.998;2023-12-04T05:12:37;0.30;;;0.00;;
69937;SDS011;57248;47.320;15.998;2023-12-04T05:15:03;0.77;;;0.37;;
69937;SDS011;57248;47.320;15.998;2023-12-04T05:17:35;0.52;;;0.00;;
69937;SDS011;57248;47.320;15.998;2023-12-04T05:20:07;1.02;;;0.40;;
69937;SDS011;57248;47.320;15.998;2023-12-04T05:22:40;1.45;;;0.30;;
69937;SDS011;57248;47.320;15.998;2023-12-04T05:25:12;0.05;;;0.00;;
69937;SDS011;57248;47.320;15.998;2023-12-04T05:27:45;0.57;;;0.10;;
69937;SDS011;57248;47.320;15.998;2023-12-04T05:30:11;1.20;;;0.30;;
69937;SDS011;57248;47.320;15.998;2023-12-04T05:32:44;0.10;;;0.00;;
69937;SDS011;57248;47.320;15.998;2023-12-04T05:35:23;0.30;;;0.20;;
69937;SDS011;57248;47.320;15.998;2023-12-04T05:37:55;0.85;;;0.10;;
69937;SDS011;57248;47.320;15.998;2023-12-04T05:40:27;0.10;;;0.03;;
69937;SDS011;57248;47.320;15.998;2023-12-04T05:42:59;0.00;;;0.00;;
69937;SDS011;57248;47.320;15.998;2023-12-04T05:45:25;0.03;;;0.00;;
69937;SDS011;57248;47.320;15.998;2023-12-04T05:47:57;1.33;;;0.30;;
69937;SDS011;57248;47.320;15.998;2023-12-04T05:50:29;0.55;;;0.10;;
69937;SDS011;57248;47.320;15.998;2023-12-04T05:53:03;0.90;;;0.10;;
69937;SDS011;57248;47.320;15.998;2023-12-04T05:55:34;1.00;;;0.45;;
69937;SDS011;57248;47.320;15.998;2023-12-04T05:58:00;0.00;;;0.00;;
69937;SDS011;57248;47.320;15.998;2023-12-04T06:00:31;0.00;;;0.00;;
69937;SDS011;57248;47.320;15.998;2023-12-04T06:03:04;0.27;;;0.13;;
69937;SDS011;57248;47.320;15.998;2023-12-04T06:05:37;0.13;;;0.00;;
69937;SDS011;57248;47.320;15.998;2023-12-04T06:08:03;0.00;;;0.00;;
69937;SDS011;57248;47.320;15.998;2023-12-04T06:10:35;0.40;;;0.20;;
69937;SDS011;57248;47.320;15.998;2023-12-04T06:13:07;0.65;;;0.20;;
69937;SDS011;57248;47.320;15.998;2023-12-04T06:15:39;3.17;;;0.28;;
69937;SDS011;57248;47.320;15.998;2023-12-04T06:18:11;0.32;;;0.13;;
69937;SDS011;57248;47.320;15.998;2023-12-04T06:20:44;0.10;;;0.00;;
69937;SDS011;57248;47.320;15.998;2023-12-04T06:23:16;4.27;;;0.30;;
69937;SDS011;57248;47.320;15.998;2023-12-04T06:25:43;3.15;;;0.30;;
69937;SDS011;57248;47.320;15.998;2023-12-04T06:28:15;0.30;;;0.10;;
69937;SDS011;57248;47.320;15.998;2023-12-04T06:30:41;0.55;;;0.30;;
69937;SDS011;57248;47.320;15.998;2023-12-04T06:33:21;1.30;;;0.30;;
69937;SDS011;57248;47.320;15.998;2023-12-04T06:35:55;0.20;;;0.10;;
69937;SDS011;57248;47.320;15.998;2023-12-04T06:38:28;1.35;;;0.40;;
69937;SDS011;57248;47.320;15.998;2023-12-04T06:41:04;1.38;;;0.10;;
69937;SDS011;57248;47.320;15.998;2023-12-04T06:43:38;0.10;;;0.00;;
69937;SDS011;57248;47.320;15.998;2023-12-04T06:46:10;0.40;;;0.20;;
69937;SDS011;57248;47.320;15.998;2023-12-04T06:48:45;0.20;;;0.00;;
69937;SDS011;57248;47.320;15.998;2023-12-04T06:51:19;0.63;;;0.22;;
69937;SDS011;57248;47.320;15.998;2023-12-04T06:53:51;0.63;;;0.32;;
69937;SDS011;57248;47.320;15.998;2023-12-04T06:56:23;0.82;;;0.30;;
69937;SDS011;57248;47.320;15.998;2023-12-04T06:58:55;0.23;;;0.10;;
69937;SDS011;57248;47.320;15.998;2023-12-04T07:01:27;0.38;;;0.08;;
69937;SDS011;57248;47.320;15.998;2023-12-04T07:03:53;0.70;;;0.20;;
69937;SDS011;57248;47.320;15.998;2023-12-04T07:06:24;0.13;;;0.00;;
69937;SDS011;57248;47.320;15.998;2023-12-04T07:08:56;0.70;;;0.30;;
69937;SDS011;57248;47.320;15.998;2023-12-04T07:11:28;0.57;;;0.28;;
69937;SDS011;57248;47.320;15.998;2023-12-04T07:13:54;0.33;;;0.03;;
69937;SDS011;57248;47.320;15.998;2023-12-04T07:16:26;0.95;;;0.63;;
69937;SDS011;57248;47.320;15.998;2023-12-04T07:18:58;0.95;;;0.20;;
69937;SDS011;57248;47.320;15.998;2023-12-04T07:21:30;0.97;;;0.40;;
69937;SDS011;57248;47.320;15.998;2023-12-04T07:24:02;2.58;;;0.88;;
69937;SDS011;57248;47.320;15.998;2023-12-04T07:26:34;1.08;;;0.35;;
69937;SDS011;57248;47.320;15.998;2023-12-04T07:29:09;3.85;;;1.00;;
69937;SDS011;57248;47.320;15.998;2023-12-04T07:31:34;3.43;;;0.83;;
69937;SDS011;57248;47.320;15.998;2023-12-04T07:34:06;3.92;;;0.28;;
69937;SDS011;57248;47.320;15.998;2023-12-04T07:36:46;2.33;;;0.45;;
69937;SDS011;57248;47.320;15.998;2023-12-04T07:39:19;2.25;;;0.65;;
69937;SDS011;57248;47.320;15.998;2023-12-04T07:41:45;3.58;;;1.45;;
69937;SDS011;57248;47.320;15.998;2023-12-04T07:44:17;1.93;;;0.87;;
69937;SDS011;57248;47.320;15.998;2023-12-04T07:46:49;6.00;;;2.25;;
69937;SDS011;57248;47.320;15.998;2023-12-04T07:49:21;3.33;;;1.23;;
69937;SDS011;57248;47.320;15.998;2023-12-04T07:51:53;7.43;;;2.75;;
69937;SDS011;57248;47.320;15.998;2023-12-04T07:54:25;6.82;;;1.88;;
69937;SDS011;57248;47.320;15.998;2023-12-04T07:56:58;1.98;;;0.55;;
69937;SDS011;57248;47.320;15.998;2023-12-04T07:59:31;2.38;;;0.43;;
69937;SDS011;57248;47.320;15.998;2023-12-04T08:02:03;5.30;;;1.37;;
69937;SDS011;57248;47.320;15.998;2023-12-04T08:04:35;2.00;;;0.70;;
69937;SDS011;57248;47.320;15.998;2023-12-04T08:07:07;6.25;;;1.83;;
69937;SDS011;57248;47.320;15.998;2023-12-04T08:09:39;3.83;;;1.83;;
69937;SDS011;57248;47.320;15.998;2023-12-04T08:12:11;4.88;;;2.17;;
69937;SDS011;57248;47.320;15.998;2023-12-04T08:14:43;3.20;;;1.20;;
69937;SDS011;57248;47.320;15.998;2023-12-04T08:17:15;2.28;;;0.68;;
69937;SDS011;57248;47.320;15.998;2023-12-04T08:19:47;5.05;;;1.27;;
69937;SDS011;57248;47.320;15.998;2023-12-04T08:22:19;7.82;;;0.88;;
69937;SDS011;57248;47.320;15.998;2023-12-04T08:24:51;2.78;;;0.90;;
69937;SDS011;57248;47.320;15.998;2023-12-04T08:27:24;4.00;;;0.70;;
69937;SDS011;57248;47.320;15.998;2023-12-04T08:29:56;2.97;;;0.75;;
69937;SDS011;57248;47.320;15.998;2023-12-04T08:32:29;2.90;;;1.02;;
69937;SDS011;57248;47.320;15.998;2023-12-04T08:35:14;2.75;;;0.60;;
69937;SDS011;57248;47.320;15.998;2023-12-04T08:37:46;1.85;;;0.65;;
69937;SDS011;57248;47.320;15.998;2023-12-04T08:40:19;2.33;;;1.07;;
69937;SDS011;57248;47.320;15.998;2023-12-04T08:42:44;3.20;;;0.75;;
69937;SDS011;57248;47.320;15.998;2023-12-04T08:45:16;2.90;;;0.40;;
69937;SDS011;57248;47.320;15.998;2023-12-04T08:47:48;0.73;;;0.30;;
69937;SDS011;57248;47.320;15.998;2023-12-04T08:50:20;2.88;;;0.68;;
69937;SDS011;57248;47.320;15.998;2023-12-04T08:52:52;1.35;;;0.32;;
69937;SDS011;57248;47.320;15.998;2023-12-04T08:55:24;1.50;;;0.45;;
69937;SDS011;57248;47.320;15.998;2023-12-04T08:57:56;3.33;;;1.13;;
69937;SDS011;57248;47.320;15.998;2023-12-04T09:00:28;0.82;;;0.40;;
69937;SDS011;57248;47.320;15.998;2023-12-04T09:03:00;3.17;;;0.63;;
69937;SDS011;57248;47.320;15.998;2023-12-04T09:05:26;0.87;;;0.20;;
69937;SDS011;57248;47.320;15.998;2023-12-04T09:07:57;1.00;;;0.43;;
69937;SDS011;57248;47.320;15.998;2023-12-04T09:10:29;0.98;;;0.28;;
69937;SDS011;57248;47.320;15.998;2023-12-04T09:13:01;1.85;;;0.20;;
69937;SDS011;57248;47.320;15.998;2023-12-04T09:15:33;2.43;;;0.83;;
69937;SDS011;57248;47.320;15.998;2023-12-04T09:18:05;0.85;;;0.20;;
69937;SDS011;57248;47.320;15.998;2023-12-04T09:20:37;5.45;;;1.38;;
69937;SDS011;57248;47.320;15.998;2023-12-04T09:23:09;1.50;;;0.57;;
69937;SDS011;57248;47.320;15.998;2023-12-04T09:25:41;1.33;;;0.25;;
69937;SDS011;57248;47.320;15.998;2023-12-04T09:28:13;0.87;;;0.30;;
69937;SDS011;57248;47.320;15.998;2023-12-04T09:30:45;7.93;;;0.47;;
69937;SDS011;57248;47.320;15.998;2023-12-04T09:33:31;3.05;;;1.02;;
69937;SDS011;57248;47.320;15.998;2023-12-04T09:36:03;2.05;;;0.52;;
69937;SDS011;57248;47.320;15.998;2023-12-04T09:38:36;2.97;;;0.50;;
69937;SDS011;57248;47.320;15.998;2023-12-04T09:41:10;0.80;;;0.30;;
69937;SDS011;57248;47.320;15.998;2023-12-04T09:43:44;1.63;;;0.40;;
69937;SDS011;57248;47.320;15.998;2023-12-04T09:46:16;2.63;;;0.63;;
69937;SDS011;57248;47.320;15.998;2023-12-04T09:48:48;4.53;;;1.45;;
69937;SDS011;57248;47.320;15.998;2023-12-04T09:51:22;2.85;;;0.93;;
69937;SDS011;57248;47.320;15.998;2023-12-04T09:53:57;2.37;;;0.40;;
69937;SDS011;57248;47.320;15.998;2023-12-04T09:56:32;1.85;;;0.60;;
69937;SDS011;57248;47.320;15.998;2023-12-04T09:59:12;1.15;;;0.30;;
69937;SDS011;57248;47.320;15.998;2023-12-04T10:01:46;2.30;;;1.35;;
69937;SDS011;57248;47.320;15.998;2023-12-04T10:04:19;1.77;;;0.63;;
69937;SDS011;57248;47.320;15.998;2023-12-04T10:06:52;2.73;;;0.63;;
69937;SDS011;57248;47.320;15.998;2023-12-04T10:09:25;0.95;;;0.52;;
69937;SDS011;57248;47.320;15.998;2023-12-04T10:11:58;0.63;;;0.30;;
69937;SDS011;57248;47.320;15.998;2023-12-04T10:14:31;6.55;;;0.90;;
69937;SDS011;57248;47.320;15.998;2023-12-04T10:17:16;1.95;;;0.43;;
69937;SDS011;57248;47.320;15.998;2023-12-04T10:19:50;2.77;;;0.47;;
69937;SDS011;57248;47.320;15.998;2023-12-04T10:25:26;3.42;;;0.45;;
69937;SDS011;57248;47.320;15.998;2023-12-04T10:28:10;2.50;;;0.77;;
69937;SDS011;57248;47.320;15.998;2023-12-04T10:30:43;3.22;;;0.90;;
69937;SDS011;57248;47.320;15.998;2023-12-04T10:33:26;1.53;;;0.60;;
69937;SDS011;57248;47.320;15.998;2023-12-04T10:36:00;1.85;;;0.50;;
69937;SDS011;57248;47.320;15.998;2023-12-04T10:38:34;1.73;;;0.35;;
69937;SDS011;57248;47.320;15.998;2023-12-04T10:41:13;1.52;;;0.40;;
69937;SDS011;57248;47.320;15.998;2023-12-04T10:43:48;1.25;;;0.25;;
69937;SDS011;57248;47.320;15.998;2023-12-04T10:46:22;1.10;;;0.27;;
69937;SDS011;57248;47.320;15.998;2023-12-04T10:48:59;1.63;;;0.45;;
69937;SDS011;57248;47.320;15.998;2023-12-04T10:51:32;2.13;;;0.80;;
69937;SDS011;57248;47.320;15.998;2023-12-04T10:54:07;5.60;;;1.40;;
69937;SDS011;57248;47.320;15.998;2023-12-04T10:56:38;1.48;;;0.47;;
69937;SDS011;57248;47.320;15.998;2023-12-04T10:59:15;0.93;;;0.20;;
69937;SDS011;57248;47.320;15.998;2023-12-04T11:01:53;3.58;;;0.82;;
69937;SDS011;57248;47.320;15.998;2023-12-04T11:04:28;1.08;;;0.30;;
69937;SDS011;57248;47.320;15.998;2023-12-04T11:07:03;0.77;;;0.22;;
69937;SDS011;57248;47.320;15.998;2023-12-04T11:09:37;1.00;;;0.20;;
69937;SDS011;57248;47.320;15.998;2023-12-04T11:12:10;1.33;;;0.70;;
69937;SDS011;57248;47.320;15.998;2023-12-04T11:14:49;1.25;;;0.50;;
69937;SDS011;57248;47.320;15.998;2023-12-04T11:17:27;2.17;;;0.70;;
69937;SDS011;57248;47.320;15.998;2023-12-04T11:20:07;2.05;;;0.40;;
69937;SDS011;57248;47.320;15.998;2023-12-04T11:22:47;1.17;;;0.25;;
69937;SDS011;57248;47.320;15.998;2023-12-04T11:25:21;1.77;;;0.37;;
69937;SDS011;57248;47.320;15.998;2023-12-04T11:27:56;1.10;;;0.15;;
69937;SDS011;57248;47.320;15.998;2023-12-04T11:30:22;3.30;;;0.85;;
69937;SDS011;57248;47.320;15.998;2023-12-04T11:32:54;2.55;;;0.40;;
69937;SDS011;57248;47.320;15.998;2023-12-04T11:35:33;2.40;;;0.50;;
69937;SDS011;57248;47.320;15.998;2023-12-04T11:38:05;2.57;;;0.50;;
69937;SDS011;57248;47.320;15.998;2023-12-04T11:40:41;4.10;;;0.63;;
69937;SDS011;57248;47.320;15.998;2023-12-04T11:43:26;1.10;;;0.22;;
69937;SDS011;57248;47.320;15.998;2023-12-04T11:46:07;1.55;;;0.50;;
69937;SDS011;57248;47.320;15.998;2023-12-04T11:48:40;0.77;;;0.10;;
69937;SDS011;57248;47.320;15.998;2023-12-04T11:51:49;1.50;;;0.47;;
69937;SDS011;57248;47.320;15.998;2023-12-04T11:54:15;0.98;;;0.32;;
69937;SDS011;57248;47.320;15.998;2023-12-04T11:56:56;2.22;;;0.40;;
69937;SDS011;57248;47.320;15.998;2023-12-04T11:59:31;2.40;;;0.65;;
69937;SDS011;57248;47.320;15.998;2023-12-04T12:02:09;4.53;;;0.90;;
69937;SDS011;57248;47.320;15.998;2023-12-04T12:04:36;1.80;;;0.37;;
69937;SDS011;57248;47.320;15.998;2023-12-04T12:07:08;2.03;;;0.47;;
69937;SDS011;57248;47.320;15.998;2023-12-04T12:09:40;2.17;;;0.40;;
69937;SDS011;57248;47.320;15.998;2023-12-04T12:12:12;1.45;;;0.22;;
69937;SDS011;57248;47.320;15.998;2023-12-04T12:14:45;2.00;;;0.38;;
69937;SDS011;57248;47.320;15.998;2023-12-04T12:17:17;0.90;;;0.17;;
69937;SDS011;57248;47.320;15.998;2023-12-04T12:19:49;1.95;;;0.52;;
69937;SDS011;57248;47.320;15.998;2023-12-04T12:22:24;2.45;;;0.57;;
69937;SDS011;57248;47.320;15.998;2023-12-04T12:24:56;3.35;;;1.08;;
69937;SDS011;57248;47.320;15.998;2023-12-04T12:27:28;1.85;;;0.63;;
69937;SDS011;57248;47.320;15.998;2023-12-04T12:30:01;0.83;;;0.10;;
69937;SDS011;57248;47.320;15.998;2023-12-04T12:32:30;3.10;;;0.90;;
69937;SDS011;57248;47.320;15.998;2023-12-04T12:35:12;3.72;;;0.90;;
69937;SDS011;57248;47.320;15.998;2023-12-04T12:37:44;3.97;;;1.30;;
69937;SDS011;57248;47.320;15.998;2023-12-04T12:40:17;2.60;;;0.85;;
69937;SDS011;57248;47.320;15.998;2023-12-04T12:42:49;1.43;;;0.40;;
69937;SDS011;57248;47.320;15.998;2023-12-04T12:45:22;4.68;;;2.03;;
69937;SDS011;57248;47.320;15.998;2023-12-04T12:47:54;1.92;;;0.73;;
69937;SDS011;57248;47.320;15.998;2023-12-04T12:50:27;5.68;;;1.23;;
69937;SDS011;57248;47.320;15.998;2023-12-04T12:53:01;4.47;;;1.20;;
69937;SDS011;57248;47.320;15.998;2023-12-04T12:55:33;2.73;;;0.80;;
69937;SDS011;57248;47.320;15.998;2023-12-04T12:58:12;3.58;;;0.60;;
69937;SDS011;57248;47.320;15.998;2023-12-04T13:00:45;2.50;;;0.68;;
69937;SDS011;57248;47.320;15.998;2023-12-04T13:03:16;4.43;;;0.85;;
69937;SDS011;57248;47.320;15.998;2023-12-04T13:05:49;2.40;;;0.55;;
69937;SDS011;57248;47.320;15.998;2023-12-04T13:08:15;5.43;;;0.90;;
69937;SDS011;57248;47.320;15.998;2023-12-04T13:10:46;1.52;;;0.65;;
69937;SDS011;57248;47.320;15.998;2023-12-04T13:13:21;7.03;;;0.90;;
69937;SDS011;57248;47.320;15.998;2023-12-04T13:15:53;9.40;;;1.45;;
69937;SDS011;57248;47.320;15.998;2023-12-04T13:18:25;3.22;;;1.08;;
69937;SDS011;57248;47.320;15.998;2023-12-04T13:20:57;4.28;;;0.85;;
69937;SDS011;57248;47.320;15.998;2023-12-04T13:23:23;2.50;;;0.83;;
69937;SDS011;57248;47.320;15.998;2023-12-04T13:25:55;4.18;;;1.10;;
69937;SDS011;57248;47.320;15.998;2023-12-04T13:28:28;6.88;;;1.88;;
69937;SDS011;57248;47.320;15.998;2023-12-04T13:31:00;1.63;;;0.80;;
69937;SDS011;57248;47.320;15.998;2023-12-04T13:33:49;3.03;;;0.90;;
69937;SDS011;57248;47.320;15.998;2023-12-04T13:36:21;3.00;;;0.55;;
69937;SDS011;57248;47.320;15.998;2023-12-04T13:38:54;2.92;;;0.77;;
69937;SDS011;57248;47.320;15.998;2023-12-04T13:41:26;4.38;;;0.55;;
69937;SDS011;57248;47.320;15.998;2023-12-04T13:44:17;0.57;;;0.13;;
69937;SDS011;57248;47.320;15.998;2023-12-04T13:46:58;2.42;;;0.68;;
69937;SDS011;57248;47.320;15.998;2023-12-04T13:49:30;3.95;;;0.88;;
69937;SDS011;57248;47.320;15.998;2023-12-04T13:52:03;2.25;;;0.50;;
69937;SDS011;57248;47.320;15.998;2023-12-04T13:54:39;7.38;;;1.63;;
69937;SDS011;57248;47.320;15.998;2023-12-04T13:57:20;3.80;;;1.13;;
69937;SDS011;57248;47.320;15.998;2023-12-04T13:59:53;7.72;;;1.90;;
69937;SDS011;57248;47.320;15.998;2023-12-04T14:02:25;5.22;;;1.10;;
69937;SDS011;57248;47.320;15.998;2023-12-04T14:04:57;4.00;;;1.00;;
69937;SDS011;57248;47.320;15.998;2023-12-04T14:07:24;6.00;;;1.30;;
69937;SDS011;57248;47.320;15.998;2023-12-04T14:09:56;5.43;;;1.23;;
69937;SDS011;57248;47.320;15.998;2023-12-04T14:12:28;3.83;;;1.38;;
69937;SDS011;57248;47.320;15.998;2023-12-04T14:15:02;6.35;;;2.03;;
69937;SDS011;57248;47.320;15.998;2023-12-04T14:17:34;2.00;;;0.73;;
69937;SDS011;57248;47.320;15.998;2023-12-04T14:20:06;2.92;;;0.95;;
69937;SDS011;57248;47.320;15.998;2023-12-04T14:22:46;2.47;;;0.80;;
69937;SDS011;57248;47.320;15.998;2023-12-04T14:25:21;5.43;;;1.20;;
69937;SDS011;57248;47.320;15.998;2023-12-04T14:27:54;1.83;;;0.63;;
69937;SDS011;57248;47.320;15.998;2023-12-04T14:30:26;7.30;;;1.25;;
69937;SDS011;57248;47.320;15.998;2023-12-04T14:32:59;1.60;;;0.40;;
69937;SDS011;57248;47.320;15.998;2023-12-04T14:35:39;5.07;;;1.27;;
69937;SDS011;57248;47.320;15.998;2023-12-04T14:38:11;2.38;;;0.88;;
69937;SDS011;57248;47.320;15.998;2023-12-04T14:40:45;2.85;;;1.02;;
69937;SDS011;57248;47.320;15.998;2023-12-04T14:43:16;2.83;;;1.00;;
69937;SDS011;57248;47.320;15.998;2023-12-04T14:45:50;4.47;;;1.02;;
69937;SDS011;57248;47.320;15.998;2023-12-04T14:48:21;4.43;;;1.00;;
69937;SDS011;57248;47.320;15.998;2023-12-04T14:50:55;4.65;;;1.25;;
69937;SDS011;57248;47.320;15.998;2023-12-04T14:53:26;4.15;;;1.15;;
69937;SDS011;57248;47.320;15.998;2023-12-04T14:56:12;7.40;;;1.35;;
69937;SDS011;57248;47.320;15.998;2023-12-04T14:59:04;4.07;;;1.33;;
69937;SDS011;57248;47.320;15.998;2023-12-04T15:01:54;1.53;;;0.37;;
69937;SDS011;57248;47.320;15.998;2023-12-04T15:04:55;3.15;;;0.75;;
69937;SDS011;57248;47.320;15.998;2023-12-04T15:07:36;3.40;;;1.20;;
69937;SDS011;57248;47.320;15.998;2023-12-04T15:10:27;2.05;;;0.85;;